createdAt,value
2018-07-31T00:01:32.284Z,46.50
2018-07-31T00:04:03.657Z,46.65
2018-07-31T00:06:34.580Z,47.16
2018-07-31T00:09:08.289Z,47.65
2018-07-31T00:11:39.357Z,47.76
2018-07-31T00:14:10.438Z,47.49
2018-07-31T00:16:41.519Z,48.28
2018-07-31T00:19:12.512Z,48.01
2018-07-31T00:21:43.513Z,47.27
2018-07-31T00:24:14.469Z,47.94
2018-07-31T00:26:45.506Z,47.42
2018-07-31T00:29:16.485Z,47.92
2018-07-31T00:31:47.537Z,48.29
2018-07-31T00:34:18.501Z,48.18
2018-07-31T00:36:49.472Z,49.03
2018-07-31T00:39:20.504Z,49.73
2018-07-31T00:41:51.512Z,49.99
2018-07-31T00:44:22.901Z,49.96
2018-07-31T00:46:54.296Z,49.79
2018-07-31T00:49:25.365Z,50.40
2018-07-31T00:51:56.381Z,50.40
2018-07-31T00:54:27.448Z,50.78
2018-07-31T00:56:58.496Z,51.19
2018-07-31T00:59:29.481Z,50.87
2018-07-31T01:02:00.489Z,51.71
2018-07-31T01:04:31.493Z,52.43
2018-07-31T01:07:02.536Z,52.82
2018-07-31T01:09:33.477Z,52.32
2018-07-31T01:12:04.469Z,53.14
2018-07-31T01:14:35.481Z,52.68
2018-07-31T01:17:06.496Z,53.39
2018-07-31T01:19:37.469Z,52.17
2018-07-31T01:22:08.509Z,53.69
2018-07-31T01:24:39.522Z,52.90
2018-07-31T01:27:10.526Z,53.37
2018-07-31T01:29:41.515Z,52.88
2018-07-31T01:32:12.533Z,53.24
2018-07-31T01:34:43.521Z,53.34
2018-07-31T01:37:14.496Z,53.09
2018-07-31T01:39:45.453Z,52.68
2018-07-31T01:42:16.509Z,53.32
2018-07-31T01:44:47.421Z,53.85
2018-07-31T01:47:18.497Z,52.77
2018-07-31T01:49:49.536Z,52.55
2018-07-31T01:52:20.496Z,52.94
2018-07-31T01:54:51.592Z,52.99
2018-07-31T01:57:22.500Z,52.81
2018-07-31T01:59:53.546Z,52.81
2018-07-31T02:02:24.508Z,53.82
2018-07-31T02:04:55.509Z,53.78
2018-07-31T02:07:26.549Z,54.09
2018-07-31T02:09:57.529Z,54.82
2018-07-31T02:12:28.539Z,54.45
2018-07-31T02:14:59.522Z,55.71
2018-07-31T02:17:30.526Z,54.81
2018-07-31T02:20:01.526Z,54.86
2018-07-31T02:22:32.525Z,54.92
2018-07-31T02:25:03.521Z,55.50
2018-07-31T02:27:34.525Z,55.92
2018-07-31T02:30:08.638Z,55.47
2018-07-31T02:32:40.025Z,55.19
2018-07-31T02:35:11.295Z,55.39
2018-07-31T02:37:42.399Z,56.15
2018-07-31T02:40:13.568Z,56.28
2018-07-31T02:42:44.493Z,55.02
2018-07-31T02:45:16.021Z,55.76
2018-07-31T02:47:47.221Z,55.54
2018-07-31T02:50:18.407Z,55.57
2018-07-31T02:52:49.524Z,55.25
2018-07-31T02:55:20.501Z,55.71
2018-07-31T02:57:51.562Z,56.23
2018-07-31T03:00:22.484Z,55.42
2018-07-31T03:02:53.481Z,55.42
2018-07-31T03:05:24.514Z,55.26
2018-07-31T03:07:55.502Z,55.05
2018-07-31T03:10:26.477Z,54.66
2018-07-31T03:12:57.498Z,55.72
2018-07-31T03:15:28.530Z,55.34
2018-07-31T03:18:01.025Z,54.87
2018-07-31T03:20:32.288Z,55.06
2018-07-31T03:23:03.414Z,55.51
2018-07-31T03:25:34.516Z,56.09
2018-07-31T03:28:05.541Z,55.86
2018-07-31T03:30:36.470Z,55.99
2018-07-31T03:33:07.544Z,55.55
2018-07-31T03:35:38.466Z,56.14
2018-07-31T03:38:09.529Z,55.77
2018-07-31T03:40:40.493Z,55.93
2018-07-31T03:43:11.553Z,56.13
2018-07-31T03:45:42.597Z,56.06
2018-07-31T03:48:13.576Z,57.14
2018-07-31T03:50:44.500Z,56.78
2018-07-31T03:53:15.489Z,56.88
2018-07-31T03:55:46.582Z,56.34
2018-07-31T03:58:18.202Z,56.95
2018-07-31T04:00:49.391Z,57.90
2018-07-31T04:03:20.522Z,58.17
2018-07-31T04:05:51.522Z,58.24
2018-07-31T04:08:22.509Z,57.27
2018-07-31T04:10:53.546Z,57.61
2018-07-31T04:13:24.534Z,57.38
2018-07-31T04:15:56.322Z,57.06
2018-07-31T04:18:27.440Z,57.70
2018-07-31T04:20:58.570Z,56.70
2018-07-31T04:23:29.611Z,58.13
2018-07-31T04:26:00.570Z,58.07
2018-07-31T04:28:31.574Z,58.37
2018-07-31T04:31:02.575Z,57.37
2018-07-31T04:33:33.541Z,58.09
2018-07-31T04:36:04.752Z,58.64
2018-07-31T04:41:06.428Z,58.19
2018-07-31T04:43:37.550Z,57.64
2018-07-31T04:46:08.558Z,57.51
2018-07-31T04:48:39.558Z,57.79
2018-07-31T04:51:10.507Z,57.65
2018-07-31T04:53:41.502Z,57.37
2018-07-31T04:56:12.467Z,57.29
2018-07-31T04:58:43.506Z,56.18
2018-07-31T05:01:14.529Z,56.20
2018-07-31T05:03:45.485Z,56.84
2018-07-31T05:06:16.713Z,57.62
2018-07-31T05:08:47.558Z,57.62
2018-07-31T05:11:18.498Z,56.56
2018-07-31T05:13:49.527Z,55.80
2018-07-31T05:16:20.542Z,55.60
2018-07-31T05:18:51.542Z,55.54
2018-07-31T05:21:22.506Z,55.27
2018-07-31T05:23:53.531Z,55.41
2018-07-31T05:26:24.497Z,54.95
2018-07-31T05:28:55.509Z,55.25
2018-07-31T05:31:26.487Z,54.78
2018-07-31T05:33:57.524Z,54.39
2018-07-31T05:36:28.792Z,54.36
2018-07-31T05:39:01.241Z,55.02
2018-07-31T05:41:32.349Z,54.58
2018-07-31T05:44:03.377Z,54.79
2018-07-31T05:46:34.415Z,53.14
2018-07-31T05:49:06.433Z,53.75
2018-07-31T05:51:37.996Z,52.99
2018-07-31T05:54:09.317Z,52.72
2018-07-31T05:56:40.401Z,53.21
2018-07-31T05:59:11.504Z,52.84
2018-07-31T06:01:42.482Z,52.52
2018-07-31T06:04:13.507Z,52.88
2018-07-31T06:06:44.505Z,52.48
2018-07-31T06:09:15.485Z,53.54
2018-07-31T06:11:46.511Z,53.88
2018-07-31T06:14:17.501Z,53.36
2018-07-31T06:16:48.631Z,53.54
2018-07-31T06:19:19.508Z,53.54
2018-07-31T06:21:50.753Z,52.52
2018-07-31T06:24:21.593Z,52.58
2018-07-31T06:26:52.479Z,51.93
2018-07-31T06:29:23.502Z,53.38
2018-07-31T06:31:54.521Z,51.61
2018-07-31T06:34:25.489Z,50.78
2018-07-31T06:36:56.486Z,52.06
2018-07-31T06:39:27.492Z,51.69
2018-07-31T06:41:58.511Z,50.79
2018-07-31T06:44:29.499Z,51.46
2018-07-31T06:47:00.480Z,52.49
2018-07-31T06:49:31.510Z,50.24
2018-07-31T06:52:02.500Z,50.93
2018-07-31T06:54:33.518Z,50.75
2018-07-31T06:57:04.488Z,51.13
2018-07-31T06:59:35.534Z,49.78
2018-07-31T07:02:06.595Z,49.71
2018-07-31T07:04:37.509Z,48.56
2018-07-31T07:07:08.580Z,49.74
2018-07-31T07:09:39.522Z,49.74
2018-07-31T07:12:10.501Z,49.82
2018-07-31T07:14:41.505Z,48.12
2018-07-31T07:17:12.557Z,49.04
2018-07-31T07:19:43.526Z,47.58
2018-07-31T07:22:14.486Z,47.54
2018-07-31T07:24:45.498Z,48.03
2018-07-31T07:27:16.516Z,47.44
2018-07-31T07:29:48.400Z,47.40
2018-07-31T07:32:19.525Z,46.69
2018-07-31T07:34:50.518Z,46.24
2018-07-31T07:37:21.488Z,46.30
2018-07-31T07:39:52.538Z,46.52
2018-07-31T07:42:23.459Z,46.48
2018-07-31T07:44:54.570Z,46.73
2018-07-31T07:47:25.486Z,45.32
2018-07-31T07:49:56.485Z,44.77
2018-07-31T07:53:03.522Z,43.77
2018-07-31T07:55:34.547Z,44.33
2018-07-31T07:58:05.620Z,43.11
2018-07-31T08:00:36.627Z,43.00
2018-07-31T08:03:08.510Z,42.96
2018-07-31T08:05:40.605Z,43.28
2018-07-31T08:08:13.388Z,43.22
2018-07-31T08:10:45.925Z,43.73
2018-07-31T08:13:18.573Z,42.75
2018-07-31T08:15:49.731Z,42.55
2018-07-31T08:18:20.731Z,41.73
2018-07-31T08:20:52.595Z,41.43
2018-07-31T08:23:24.351Z,40.15
2018-07-31T08:25:55.707Z,40.13
2018-07-31T08:28:27.031Z,40.22
2018-07-31T08:30:58.434Z,39.38
2018-07-31T08:33:30.212Z,39.00
2018-07-31T08:36:01.448Z,39.17
2018-07-31T08:38:32.626Z,36.92
2018-07-31T08:41:03.686Z,36.66
2018-07-31T08:43:35.298Z,35.99
2018-07-31T08:46:06.669Z,36.78
2018-07-31T08:48:37.752Z,35.72
2018-07-31T08:51:09.547Z,34.50
2018-07-31T08:53:41.463Z,33.61
2018-07-31T08:56:12.618Z,33.65
2018-07-31T08:58:43.660Z,33.79
2018-07-31T09:01:15.018Z,32.85
2018-07-31T09:03:46.453Z,32.26
2018-07-31T09:06:22.402Z,32.93
2018-07-31T09:08:53.664Z,31.39
2018-07-31T09:11:25.358Z,30.37
2018-07-31T09:13:56.604Z,30.37
2018-07-31T09:16:27.645Z,29.48
2018-07-31T09:18:59.955Z,28.80
2018-07-31T09:21:31.409Z,27.82
2018-07-31T09:24:02.578Z,28.22
2018-07-31T09:26:33.785Z,27.33
2018-07-31T09:29:04.395Z,27.55
2018-07-31T09:31:35.630Z,27.21
2018-07-31T09:34:07.201Z,25.78
2018-07-31T09:36:38.529Z,27.33
2018-07-31T09:39:12.469Z,26.20
2018-07-31T09:41:43.670Z,26.51
2018-07-31T09:44:14.626Z,25.46
2018-07-31T09:46:46.419Z,24.71
2018-07-31T09:49:17.568Z,24.78
2018-07-31T09:51:50.404Z,24.38
2018-07-31T09:54:21.581Z,24.56
2018-07-31T09:57:42.514Z,24.27
2018-07-31T10:00:16.511Z,23.40
2018-07-31T10:02:48.693Z,23.74
2018-07-31T10:05:20.483Z,22.91
2018-07-31T10:07:51.821Z,23.72
2018-07-31T10:10:22.320Z,23.66
2018-07-31T10:12:55.325Z,23.06
2018-07-31T10:15:26.411Z,22.92
2018-07-31T10:17:57.651Z,23.19
2018-07-31T10:20:28.647Z,22.86
2018-07-31T10:22:59.882Z,22.25
2018-07-31T10:25:32.453Z,22.37
2018-07-31T10:28:03.595Z,21.19
2018-07-31T10:30:34.710Z,21.69
2018-07-31T10:33:05.699Z,21.63
2018-07-31T10:35:36.784Z,21.02
2018-07-31T10:38:08.265Z,21.31
2018-07-31T10:40:39.592Z,20.75
2018-07-31T10:43:10.829Z,21.83
2018-07-31T10:45:41.398Z,21.39
2018-07-31T10:48:12.614Z,21.02
2018-07-31T10:50:44.243Z,20.26
2018-07-31T10:53:15.428Z,21.40
2018-07-31T10:55:46.667Z,20.00
2018-07-31T10:58:18.622Z,21.27
2018-07-31T11:00:50.602Z,20.75
2018-07-31T11:03:22.376Z,21.00
2018-07-31T11:05:53.801Z,20.61
2018-07-31T11:08:24.531Z,21.19
2018-07-31T11:10:55.722Z,20.25
2018-07-31T11:13:27.205Z,21.24
2018-07-31T11:15:58.426Z,20.72
2018-07-31T11:18:29.735Z,20.00
2018-07-31T11:21:01.461Z,20.18
2018-07-31T11:23:32.544Z,20.23
2018-07-31T11:26:03.649Z,19.96
2018-07-31T11:28:34.636Z,19.79
2018-07-31T11:31:07.323Z,19.89
2018-07-31T11:33:38.771Z,20.42
2018-07-31T11:36:10.659Z,19.74
2018-07-31T11:38:42.237Z,19.17
2018-07-31T11:41:13.697Z,20.81
2018-07-31T11:43:46.185Z,19.96
2018-07-31T11:46:18.282Z,20.63
2018-07-31T11:48:50.342Z,20.37
2018-07-31T11:51:22.647Z,19.54
2018-07-31T11:53:55.416Z,19.83
2018-07-31T11:56:26.596Z,20.12
2018-07-31T11:58:57.631Z,20.46
2018-07-31T12:01:28.618Z,21.05
2018-07-31T12:03:59.698Z,21.48
2018-07-31T12:06:31.536Z,22.12
2018-07-31T12:09:02.721Z,22.96
2018-07-31T12:11:34.035Z,23.18
2018-07-31T12:14:05.826Z,23.51
2018-07-31T12:16:37.299Z,23.91
2018-07-31T12:19:13.366Z,22.99
2018-07-31T12:21:44.613Z,23.86
2018-07-31T12:24:15.753Z,23.68
2018-07-31T12:26:47.527Z,23.09
2018-07-31T12:29:18.703Z,23.80
2018-07-31T12:31:50.039Z,23.51
2018-07-31T12:34:21.573Z,22.98
2018-07-31T12:36:53.344Z,22.06
2018-07-31T12:39:24.781Z,22.29
2018-07-31T12:41:55.418Z,21.23
2018-07-31T12:44:26.737Z,22.79
2018-07-31T12:46:58.029Z,22.54
2018-07-31T12:49:29.499Z,21.79
2018-07-31T12:52:00.744Z,21.61
2018-07-31T12:54:33.045Z,22.64
2018-07-31T12:57:04.431Z,20.82
2018-07-31T12:59:35.640Z,21.55
2018-07-31T13:02:06.674Z,21.77
2018-07-31T13:04:37.807Z,21.48
2018-07-31T13:07:08.289Z,21.50
2018-07-31T13:09:39.481Z,21.64
2018-07-31T13:12:11.237Z,22.11
2018-07-31T13:14:42.503Z,22.72
2018-07-31T13:17:13.722Z,22.30
2018-07-31T13:19:44.780Z,21.16
2018-07-31T13:22:15.682Z,20.23
2018-07-31T13:24:47.409Z,19.88
2018-07-31T13:27:18.650Z,19.56
2018-07-31T13:29:51.033Z,21.25
2018-07-31T13:32:22.412Z,22.59
2018-07-31T13:34:53.608Z,22.39
2018-07-31T13:37:24.745Z,22.29
2018-07-31T13:39:55.756Z,21.67
2018-07-31T13:42:26.626Z,21.13
2018-07-31T13:44:58.295Z,20.85
2018-07-31T13:47:29.550Z,22.01
2018-07-31T13:50:00.634Z,22.85
2018-07-31T13:52:31.586Z,21.89
2018-07-31T13:55:02.609Z,21.36
2018-07-31T13:57:33.651Z,20.86
2018-07-31T14:00:05.558Z,19.93
2018-07-31T14:02:36.596Z,20.23
2018-07-31T14:05:07.672Z,21.77
2018-07-31T14:07:39.263Z,22.07
2018-07-31T14:10:10.838Z,22.12
2018-07-31T14:12:42.455Z,23.43
2018-07-31T14:15:13.570Z,23.42
2018-07-31T14:17:44.835Z,23.24
2018-07-31T14:20:15.306Z,23.43
2018-07-31T14:22:46.656Z,23.76
2018-07-31T14:25:17.724Z,23.47
2018-07-31T14:27:49.315Z,24.14
2018-07-31T14:30:20.460Z,24.48
2018-07-31T14:32:51.685Z,24.33
2018-07-31T14:35:24.531Z,23.62
2018-07-31T14:37:55.627Z,23.85
2018-07-31T14:40:26.706Z,22.86
2018-07-31T14:42:57.885Z,22.79
2018-07-31T14:45:28.375Z,22.50
2018-07-31T14:47:59.574Z,22.38
2018-07-31T14:50:30.632Z,21.78
2018-07-31T14:53:01.767Z,20.69
2018-07-31T14:55:32.733Z,21.16
2018-07-31T14:58:03.684Z,21.75
2018-07-31T15:00:34.726Z,21.44
2018-07-31T15:03:06.212Z,22.11
2018-07-31T15:05:37.421Z,20.76
2018-07-31T15:08:09.538Z,21.44
2018-07-31T15:10:40.633Z,22.21
2018-07-31T15:13:11.614Z,21.54
2018-07-31T15:15:43.527Z,21.15
2018-07-31T15:18:15.052Z,21.18
2018-07-31T15:20:46.574Z,21.21
2018-07-31T15:23:17.709Z,21.68
2018-07-31T15:25:49.582Z,22.05
2018-07-31T15:28:23.746Z,21.49
2018-07-31T15:30:55.232Z,21.52
2018-07-31T15:33:27.275Z,22.03
2018-07-31T15:35:59.713Z,23.41
2018-07-31T15:38:31.639Z,21.83
2018-07-31T15:41:04.672Z,22.48
2018-07-31T15:43:37.709Z,22.40
2018-07-31T15:46:09.582Z,22.26
2018-07-31T15:48:41.077Z,22.47
2018-07-31T15:51:13.377Z,22.73
2018-07-31T15:53:45.521Z,22.88
2018-07-31T15:56:17.888Z,23.15
2018-07-31T15:58:50.248Z,23.47
2018-07-31T16:01:21.749Z,27.14
2018-07-31T16:03:53.458Z,27.03
2018-07-31T16:06:25.638Z,28.52
2018-07-31T16:08:57.303Z,28.86
2018-07-31T16:11:28.770Z,29.91
2018-07-31T16:14:07.245Z,29.61
2018-07-31T16:16:39.059Z,28.63
2018-07-31T16:19:10.401Z,29.35
2018-07-31T16:21:42.344Z,30.39
2018-07-31T16:24:14.503Z,31.36
2018-07-31T16:26:55.335Z,36.15
2018-07-31T16:29:26.738Z,51.08
2018-07-31T16:31:58.414Z,40.73
2018-07-31T16:34:29.514Z,48.00
2018-07-31T16:37:00.561Z,49.36
2018-07-31T16:39:31.491Z,53.76
2018-07-31T16:42:02.472Z,55.31
2018-07-31T16:44:33.440Z,53.63
2018-07-31T16:47:04.725Z,55.10
2018-07-31T16:49:35.541Z,58.87
2018-07-31T16:52:06.550Z,58.89
2018-07-31T16:54:37.492Z,61.09
2018-07-31T16:57:08.556Z,60.41
2018-07-31T16:59:39.479Z,58.12
2018-07-31T17:02:10.518Z,48.96
2018-07-31T17:04:41.481Z,50.87
2018-07-31T17:07:12.472Z,49.50
2018-07-31T17:09:43.452Z,50.74
2018-07-31T17:12:14.545Z,50.40
2018-07-31T17:14:45.550Z,48.96
2018-07-31T17:17:16.554Z,48.02
2018-07-31T17:19:47.508Z,49.30
2018-07-31T17:22:18.501Z,48.19
2018-07-31T17:24:49.581Z,45.51
2018-07-31T17:27:20.583Z,47.56
2018-07-31T17:29:51.567Z,45.36
2018-07-31T17:32:22.561Z,44.72
2018-07-31T17:34:53.518Z,45.29
2018-07-31T17:37:24.616Z,45.12
2018-07-31T17:39:55.591Z,46.71
2018-07-31T17:42:26.536Z,46.54
2018-07-31T17:44:57.517Z,44.72
2018-07-31T17:47:28.580Z,46.89
2018-07-31T17:49:59.528Z,48.09
2018-07-31T17:52:30.493Z,45.31
2018-07-31T17:55:01.581Z,45.61
2018-07-31T17:57:32.571Z,45.49
2018-07-31T18:00:03.592Z,43.80
2018-07-31T18:02:34.577Z,47.41
2018-07-31T18:05:05.535Z,45.89
2018-07-31T18:07:36.521Z,45.61
2018-07-31T18:10:08.561Z,46.91
2018-07-31T18:12:39.608Z,46.18
2018-07-31T18:15:11.828Z,44.55
2018-07-31T18:17:42.613Z,44.74
2018-07-31T18:20:13.560Z,45.42
2018-07-31T18:22:44.511Z,45.45
2018-07-31T18:25:15.518Z,43.07
2018-07-31T18:27:46.518Z,42.15
2018-07-31T18:30:17.570Z,42.05
2018-07-31T18:32:48.517Z,42.11
2018-07-31T18:35:19.526Z,44.67
2018-07-31T18:37:50.598Z,43.44
2018-07-31T18:40:21.560Z,43.17
2018-07-31T18:42:52.582Z,43.29
2018-07-31T18:45:23.512Z,41.96
2018-07-31T18:47:54.497Z,42.31
2018-07-31T18:50:25.557Z,44.03
2018-07-31T18:52:56.580Z,44.43
2018-07-31T18:55:27.818Z,43.79
2018-07-31T18:57:58.308Z,44.61
2018-07-31T19:00:29.435Z,42.76
2018-07-31T19:03:00.530Z,40.50
2018-07-31T19:05:31.478Z,41.75
2018-07-31T19:08:02.484Z,41.12
2018-07-31T19:10:33.615Z,43.87
2018-07-31T19:13:04.510Z,44.49
2018-07-31T19:15:35.518Z,44.53
2018-07-31T19:18:06.577Z,43.74
2018-07-31T19:20:37.496Z,43.32
2018-07-31T19:23:08.541Z,42.70
2018-07-31T19:25:39.480Z,42.30
2018-07-31T19:28:10.570Z,42.12
2018-07-31T19:30:41.576Z,42.50
2018-07-31T19:33:12.526Z,41.76
2018-07-31T19:35:43.573Z,41.32
2018-07-31T19:38:15.201Z,42.10
2018-07-31T19:40:46.546Z,41.63
2018-07-31T19:43:17.496Z,41.59
2018-07-31T19:45:48.496Z,40.49
2018-07-31T19:48:19.509Z,40.88
2018-07-31T19:50:50.491Z,40.91
2018-07-31T19:53:21.513Z,41.88
2018-07-31T19:55:52.528Z,40.80
2018-07-31T19:58:23.537Z,41.08
2018-07-31T20:00:55.235Z,42.39
2018-07-31T20:03:26.553Z,42.29
2018-07-31T20:05:57.982Z,41.59
2018-07-31T20:08:29.254Z,42.12
2018-07-31T20:11:00.374Z,42.55
2018-07-31T20:13:31.500Z,43.18
2018-07-31T20:16:02.465Z,42.85
2018-07-31T20:18:33.535Z,41.21
2018-07-31T20:21:04.682Z,41.56
2018-07-31T20:23:35.509Z,42.99
2018-07-31T20:26:06.538Z,43.84
2018-07-31T20:28:37.483Z,44.21
2018-07-31T20:31:08.494Z,44.86
2018-07-31T20:33:39.496Z,44.56
2018-07-31T20:36:10.466Z,44.31
2018-07-31T20:38:41.492Z,43.64
2018-07-31T20:41:12.573Z,43.83
2018-07-31T20:43:43.501Z,43.94
2018-07-31T20:46:14.492Z,43.60
2018-07-31T20:48:45.497Z,44.54
2018-07-31T20:51:16.501Z,43.84
2018-07-31T20:53:47.497Z,44.63
2018-07-31T20:56:18.540Z,44.82
2018-07-31T20:58:49.481Z,44.81
2018-07-31T21:01:20.490Z,45.73
2018-07-31T21:03:51.533Z,44.38
2018-07-31T21:06:22.477Z,44.97
2018-07-31T21:08:53.477Z,45.17
2018-07-31T21:11:24.480Z,46.22
2018-07-31T21:13:55.480Z,46.77
2018-07-31T21:16:26.501Z,46.28
2018-07-31T21:18:57.493Z,46.59
2018-07-31T21:21:28.478Z,46.03
2018-07-31T21:23:59.457Z,46.89
2018-07-31T21:26:30.476Z,47.12
2018-07-31T21:29:01.493Z,47.01
2018-07-31T21:31:32.573Z,46.55
2018-07-31T21:34:03.518Z,46.81
2018-07-31T21:36:34.470Z,46.43
2018-07-31T21:39:09.199Z,46.37
2018-07-31T21:41:40.519Z,46.07
2018-07-31T21:44:11.837Z,46.24
2018-07-31T21:46:42.325Z,46.00
2018-07-31T21:49:15.377Z,46.40
2018-07-31T21:51:46.490Z,46.57
2018-07-31T21:54:17.505Z,46.94
2018-07-31T21:56:48.497Z,46.94
2018-07-31T21:59:19.480Z,47.38
2018-07-31T22:01:50.492Z,47.06
2018-07-31T22:04:21.476Z,46.91
2018-07-31T22:06:52.453Z,46.86
2018-07-31T22:09:28.618Z,47.07
2018-07-31T22:11:59.895Z,46.60
2018-07-31T22:14:31.717Z,46.68
2018-07-31T22:17:02.633Z,47.04
2018-07-31T22:19:33.493Z,47.06
2018-07-31T22:22:04.512Z,46.68
2018-07-31T22:24:35.556Z,47.79
2018-07-31T22:27:06.552Z,47.74
2018-07-31T22:29:37.524Z,47.73
2018-07-31T22:32:08.506Z,47.38
2018-07-31T22:34:39.533Z,47.13
2018-07-31T22:37:10.508Z,47.77
2018-07-31T22:39:41.489Z,47.42
2018-07-31T22:42:12.510Z,47.74
2018-07-31T22:44:43.497Z,47.96
2018-07-31T22:47:14.524Z,47.82
2018-07-31T22:49:45.588Z,47.77
2018-07-31T22:52:16.568Z,48.15
2018-07-31T22:54:47.540Z,47.91
2018-07-31T22:57:18.515Z,47.70
2018-07-31T22:59:49.528Z,48.03
2018-07-31T23:02:20.497Z,48.53
2018-07-31T23:04:51.513Z,47.95
2018-07-31T23:07:22.516Z,48.42
2018-07-31T23:09:58.422Z,48.27
2018-07-31T23:12:29.495Z,48.96
2018-07-31T23:15:02.015Z,47.89
2018-07-31T23:17:33.458Z,48.16
2018-07-31T23:20:06.014Z,47.82
2018-07-31T23:22:51.683Z,48.12
2018-07-31T23:25:22.555Z,48.69
2018-07-31T23:27:53.562Z,48.01
2018-07-31T23:30:24.551Z,47.95
2018-07-31T23:32:55.487Z,48.80
2018-07-31T23:35:26.539Z,47.91
2018-07-31T23:37:57.472Z,48.37
2018-07-31T23:40:28.478Z,48.57
2018-07-31T23:42:59.465Z,48.69
2018-07-31T23:45:30.485Z,48.49
2018-07-31T23:48:01.483Z,48.77
2018-07-31T23:50:32.521Z,48.54
2018-07-31T23:53:03.513Z,48.43
2018-07-31T23:55:34.480Z,48.00
2018-07-31T23:58:05.473Z,47.67
